West Liberty, Kentucky
Current Conditions -  °F | °C
As of 12:53 PM on Friday 28 Nov 2014 (Local Time) from KJKL Reporting Station
Clear Clear  
Wind Chill: 34°   Ceiling: Unl
Heat Index: 34°   Visibility: 10mi
Dew Point: 17°   Wind: 3mph
Humidity: 50%   Direction: NA
Pressure: 30.32"   Gusts: NA
Location:  37.92°N, 83.26°W
Report Text: KJKL 281753Z AUTO VRB03KT 10SM CLR 01/M08 A3032 RMK AO2 SLP277 T00111083 10011 21033 58026
Loading
Personal Weather Stations






























Interactive Weather Map New forecast layout! Learn more

10-Day Weather Forecast

Advertisements
Track Severe Weather on mobile